Time;durP1;ratioP1;P1;durP2;ratioP2;P2;SDS_P1;SDS_P2;PMS_P1;PMS_P2;Temp;Humidity;BMP_temperature;BMP_pressure;BME280_temperature;BME280_humidity;BME280_pressure;Samples;Min_cycle;Max_cycle;Signal;HPM_P1;HPM_P2
2021/01/03 00:01:07;;;;;;;6.90;4.80;;;;;;;1.87;100.00;101964.94;5071944;28;20121;-66
2021/01/03 00:03:33;;;;;;;8.68;5.20;;;;;;;1.87;100.00;101957.72;5071628;28;20070;-65
2021/01/03 00:05:58;;;;;;;8.05;4.65;;;;;;;1.88;100.00;101956.69;5071814;28;20119;-65
2021/01/03 00:08:24;;;;;;;8.07;5.45;;;;;;;1.88;100.00;101967.47;5071647;28;20486;-66
2021/01/03 00:10:50;;;;;;;9.40;5.57;;;;;;;1.87;100.00;101959.56;5071736;28;20043;-66
2021/01/03 00:13:15;;;;;;;11.18;6.20;;;;;;;1.85;100.00;101961.56;5071608;28;20466;-66
2021/01/03 00:15:41;;;;;;;10.63;5.40;;;;;;;1.86;100.00;101953.31;5071816;28;20044;-65
2021/01/03 00:18:06;;;;;;;9.98;5.75;;;;;;;1.86;100.00;101958.72;5071570;28;20029;-66
2021/01/03 00:20:32;;;;;;;7.50;5.47;;;;;;;1.85;100.00;101957.03;5071379;28;20383;-65
2021/01/03 00:22:58;;;;;;;7.38;5.22;;;;;;;1.84;100.00;101958.03;5071320;28;20364;-65
2021/01/03 00:25:26;;;;;;;7.00;5.25;;;;;;;1.83;100.00;101953.66;5071447;28;20478;-65
2021/01/03 00:27:53;;;;;;;5.93;5.25;;;;;;;1.84;100.00;101949.94;5071351;28;20123;-66
2021/01/03 00:30:22;;;;;;;10.38;5.70;;;;;;;1.85;100.00;101946.25;5071217;28;20060;-65
2021/01/03 00:32:48;;;;;;;7.75;5.13;;;;;;;1.86;100.00;101942.53;5071353;28;20119;-66
2021/01/03 00:35:20;;;;;;;9.27;5.13;;;;;;;1.87;100.00;101944.25;5071219;28;20032;-64
2021/01/03 00:37:46;;;;;;;6.47;5.43;;;;;;;1.87;100.00;101943.41;5071246;28;20470;-66
2021/01/03 00:40:16;;;;;;;7.38;5.90;;;;;;;1.87;100.00;101938.84;5070975;28;20079;-65
2021/01/03 00:42:42;;;;;;;7.20;5.35;;;;;;;1.86;100.00;101937.16;5071244;28;20079;-65
2021/01/03 00:45:09;;;;;;;7.05;5.43;;;;;;;1.84;100.00;101933.78;5070764;28;20047;-64
2021/01/03 00:47:35;;;;;;;7.97;5.18;;;;;;;1.84;100.00;101939.16;5071168;28;20078;-65
2021/01/03 00:50:03;;;;;;;6.95;5.38;;;;;;;1.84;100.00;101943.72;5071047;28;20036;-65
2021/01/03 00:52:29;;;;;;;6.82;5.05;;;;;;;1.84;100.00;101935.63;5070983;28;20064;-66
2021/01/03 00:54:55;;;;;;;6.22;5.32;;;;;;;1.81;100.00;101926.88;5070912;28;20058;-65
2021/01/03 00:57:20;;;;;;;6.18;5.57;;;;;;;1.80;100.00;101927.03;5071369;28;20480;-66
2021/01/03 00:59:46;;;;;;;7.95;5.78;;;;;;;1.78;100.00;101919.13;5071186;28;20477;-65
2021/01/03 01:02:11;;;;;;;8.63;5.53;;;;;;;1.79;100.00;101941.50;5070890;28;20513;-66
2021/01/03 01:04:37;;;;;;;7.35;5.47;;;;;;;1.77;100.00;101935.44;5071285;28;20074;-65
2021/01/03 01:07:03;;;;;;;6.18;4.97;;;;;;;1.76;100.00;101921.13;5070978;28;20501;-65
2021/01/03 01:09:28;;;;;;;6.97;5.95;;;;;;;1.76;100.00;101920.28;5070748;28;20123;-65
2021/01/03 01:11:54;;;;;;;6.68;5.90;;;;;;;1.76;100.00;101914.88;5070800;28;20033;-66
2021/01/03 01:14:20;;;;;;;6.30;5.70;;;;;;;1.75;100.00;101918.59;5070837;28;20036;-65
2021/01/03 01:16:46;;;;;;;7.57;5.53;;;;;;;1.75;100.00;101919.44;5070853;28;20151;-65
2021/01/03 01:19:12;;;;;;;6.20;5.60;;;;;;;1.74;100.00;101917.75;5070767;28;20093;-65
2021/01/03 01:21:37;;;;;;;6.30;5.63;;;;;;;1.71;100.00;101911.81;5070968;28;20462;-65
2021/01/03 01:24:03;;;;;;;6.50;5.47;;;;;;;1.71;100.00;101911.81;5070860;28;20040;-63
2021/01/03 01:26:29;;;;;;;8.85;5.78;;;;;;;1.69;100.00;101908.44;5070849;28;20490;-63
2021/01/03 01:28:54;;;;;;;6.65;5.93;;;;;;;1.69;100.00;101908.44;5070841;28;20495;-63
2021/01/03 01:31:20;;;;;;;6.32;5.70;;;;;;;1.70;100.00;101910.13;5071115;28;20410;-62
2021/01/03 01:33:46;;;;;;;6.55;5.95;;;;;;;1.68;100.00;101917.50;5070765;28;20466;-64
2021/01/03 01:36:12;;;;;;;8.52;6.85;;;;;;;1.67;100.00;101915.81;5070737;28;20108;-63
2021/01/03 01:38:37;;;;;;;8.73;7.03;;;;;;;1.65;100.00;101912.44;5070840;28;20494;-63
2021/01/03 01:41:04;;;;;;;8.13;6.70;;;;;;;1.65;100.00;101918.69;5070558;28;20074;-63
2021/01/03 01:43:30;;;;;;;7.82;7.00;;;;;;;1.65;100.00;101917.84;5070447;28;20127;-63
2021/01/03 01:45:56;;;;;;;8.45;7.03;;;;;;;1.64;100.00;101924.22;5070608;28;20398;-62
2021/01/03 01:48:27;;;;;;;8.32;6.53;;;;;;;1.63;100.00;101923.38;5070388;28;20037;-62
2021/01/03 01:50:57;;;;;;;9.80;7.78;;;;;;;1.62;100.00;101923.53;5070451;28;20062;-63
2021/01/03 01:53:31;;;;;;;8.43;7.03;;;;;;;1.62;100.00;101923.53;5070592;28;20043;-63
2021/01/03 01:56:20;;;;;;;8.65;7.72;;;;;;;1.61;100.00;101927.25;5070569;28;20093;-63
2021/01/03 01:59:05;;;;;;;9.20;7.78;;;;;;;1.63;100.00;101925.22;5074084;28;20409;-63
2021/01/03 02:02:00;;;;;;;10.32;7.72;;;;;;;1.63;100.00;101931.47;5074237;28;20074;-63
2021/01/03 02:04:33;;;;;;;10.82;7.80;;;;;;;1.63;100.00;101941.38;5074192;28;20039;-62
2021/01/03 02:07:08;;;;;;;8.80;7.60;;;;;;;1.61;100.00;101944.25;5074022;28;20079;-63
2021/01/03 02:10:06;;;;;;;8.85;7.93;;;;;;;1.61;100.00;101938.00;5073984;28;20040;-63
2021/01/03 02:12:36;;;;;;;9.27;8.30;;;;;;;1.59;100.00;101940.00;5059897;28;20502;-63
2021/01/03 02:15:06;;;;;;;8.93;8.02;;;;;;;1.57;100.00;101939.31;5073828;28;20123;-62
2021/01/03 02:17:32;;;;;;;10.02;8.45;;;;;;;1.57;100.00;101942.03;5073844;28;20394;-62
2021/01/03 02:19:59;;;;;;;9.98;8.90;;;;;;;1.55;100.00;101952.06;5073994;28;20048;-62
2021/01/03 02:22:33;;;;;;;9.82;8.80;;;;;;;1.56;100.00;101953.75;5073827;28;20433;-63
2021/01/03 02:25:08;;;;;;;9.50;8.45;;;;;;;1.56;100.00;101959.16;5073672;28;20143;-63
2021/01/03 02:27:42;;;;;;;11.05;8.93;;;;;;;1.55;100.00;101965.53;5073877;28;20119;-62
2021/01/03 02:30:09;;;;;;;10.27;8.43;;;;;;;1.51;100.00;101965.84;5073500;28;20032;-63
2021/01/03 02:32:37;;;;;;;10.07;8.73;;;;;;;1.50;100.00;101968.69;5073560;28;20360;-63
2021/01/03 02:35:06;;;;;;;10.77;8.60;;;;;;;1.46;100.00;101957.41;5073705;28;20432;-62
2021/01/03 02:37:42;;;;;;;9.45;8.38;;;;;;;1.43;100.00;101962.25;5073547;28;20486;-63
2021/01/03 02:40:17;;;;;;;9.38;8.25;;;;;;;1.39;100.00;101955.47;5073262;28;20052;-62
2021/01/03 02:42:44;;;;;;;11.73;8.48;;;;;;;1.32;100.00;101957.94;5073399;28;20501;-63
2021/01/03 02:45:29;;;;;;;10.50;8.55;;;;;;;1.30;100.00;101951.03;5073315;28;20478;-63
2021/01/03 02:48:05;;;;;;;8.65;7.72;;;;;;;1.26;100.00;101955.88;5073349;28;20036;-65
2021/01/03 02:50:31;;;;;;;11.30;8.50;;;;;;;1.26;100.00;101958.56;5073257;28;20083;-65
2021/01/03 02:52:57;;;;;;;9.25;8.05;;;;;;;1.23;100.00;101945.44;5073659;28;20029;-65
2021/01/03 02:55:25;;;;;;;10.30;8.70;;;;;;;1.19;100.00;101944.88;5073230;28;20039;-65
2021/01/03 02:57:51;;;;;;;15.70;8.55;;;;;;;1.18;100.00;101945.03;5055166;28;20036;-65
2021/01/03 03:00:20;;;;;;;10.85;9.18;;;;;;;1.16;100.00;101949.72;5073137;28;20501;-65
2021/01/03 03:02:46;;;;;;;10.95;9.05;;;;;;;1.14;100.00;101946.34;5073053;28;20043;-66
2021/01/03 03:05:12;;;;;;;10.18;9.02;;;;;;;1.11;100.00;101952.03;5072856;28;20062;-65
2021/01/03 03:07:37;;;;;;;10.05;8.80;;;;;;;1.11;100.00;101943.97;5072771;28;20045;-65
2021/01/03 03:10:04;;;;;;;10.60;8.45;;;;;;;1.14;100.00;101951.72;5072909;28;20418;-65
2021/01/03 03:12:29;;;;;;;10.13;8.60;;;;;;;1.19;100.00;101957.47;5072784;28;20040;-66
2021/01/03 03:14:55;;;;;;;9.75;8.13;;;;;;;1.23;100.00;101944.59;5072993;28;20033;-65
2021/01/03 03:17:20;;;;;;;11.38;9.18;;;;;;;1.26;100.00;101952.34;5072815;28;20094;-65
2021/01/03 03:19:46;;;;;;;10.13;8.50;;;;;;;1.27;100.00;101954.88;5072641;28;20037;-65
2021/01/03 03:22:11;;;;;;;10.13;8.40;;;;;;;1.28;100.00;101943.13;5072572;28;20043;-64
2021/01/03 03:24:37;;;;;;;9.88;8.88;;;;;;;1.30;100.00;101945.66;5072545;28;20040;-66
2021/01/03 03:27:03;;;;;;;10.40;9.30;;;;;;;1.30;100.00;101946.50;5072637;28;20074;-65
2021/01/03 03:29:29;;;;;;;12.50;9.63;;;;;;;1.31;100.00;101945.50;5072711;28;20090;-65
2021/01/03 03:31:56;;;;;;;11.15;8.93;;;;;;;1.30;100.00;101951.03;5072568;28;20047;-65
2021/01/03 03:34:24;;;;;;;10.48;8.48;;;;;;;1.26;100.00;101950.50;5072334;28;20372;-65
2021/01/03 03:36:54;;;;;;;11.13;9.02;;;;;;;1.23;100.00;101940.03;5072273;28;20035;-65
2021/01/03 03:39:21;;;;;;;12.35;9.60;;;;;;;1.23;100.00;101933.81;5072430;28;20391;-66
2021/01/03 03:41:47;;;;;;;13.45;9.80;;;;;;;1.23;100.00;101933.81;5072250;28;20577;-65
2021/01/03 03:44:13;;;;;;;12.32;10.35;;;;;;;1.20;100.00;101940.34;5072108;28;20115;-66
2021/01/03 03:46:38;;;;;;;11.60;9.65;;;;;;;1.18;100.00;101942.34;5072625;28;20536;-65
2021/01/03 03:49:04;;;;;;;12.48;10.15;;;;;;;1.16;100.00;101936.25;5072133;28;20150;-65
2021/01/03 03:51:30;;;;;;;11.45;9.75;;;;;;;1.18;100.00;101945.88;5072131;28;20040;-65
2021/01/03 03:53:55;;;;;;;12.55;9.70;;;;;;;1.18;100.00;101939.66;5071931;28;20044;-65
2021/01/03 03:56:21;;;;;;;15.00;10.98;;;;;;;1.16;100.00;101941.66;5072042;28;20098;-64
2021/01/03 03:58:46;;;;;;;11.95;10.10;;;;;;;1.14;100.00;101943.66;5071952;28;20036;-66
2021/01/03 04:01:12;;;;;;;12.95;10.52;;;;;;;1.12;100.00;101942.97;5071868;28;20037;-65
2021/01/03 04:03:38;;;;;;;11.82;9.27;;;;;;;1.11;100.00;101941.28;5071859;28;20448;-66
2021/01/03 04:06:05;;;;;;;14.25;10.73;;;;;;;1.10;100.00;101939.59;5071660;28;20045;-65
2021/01/03 04:08:30;;;;;;;12.30;9.57;;;;;;;1.16;100.00;101938.97;5071697;28;20399;-66
2021/01/03 04:10:57;;;;;;;11.68;9.48;;;;;;;1.19;100.00;101927.88;5053693;28;20040;-65
2021/01/03 04:13:23;;;;;;;10.30;8.80;;;;;;;1.21;100.00;101936.63;5071573;28;20048;-65
2021/01/03 04:15:49;;;;;;;12.30;9.63;;;;;;;1.24;100.00;101924.75;5071639;28;20097;-64
2021/01/03 04:18:15;;;;;;;10.98;8.95;;;;;;;1.27;100.00;101922.59;5071465;28;20043;-66
2021/01/03 04:20:40;;;;;;;14.15;8.85;;;;;;;1.29;100.00;101925.97;5070936;28;20032;-65
2021/01/03 04:23:08;;;;;;;12.57;10.23;;;;;;;1.31;100.00;101937.41;5053560;28;20052;-66
2021/01/03 04:25:35;;;;;;;12.32;9.23;;;;;;;1.36;100.00;101929.72;5071362;28;20127;-65
2021/01/03 04:28:00;;;;;;;12.52;9.75;;;;;;;1.43;100.00;101936.19;5071454;28;20036;-65
2021/01/03 04:30:27;;;;;;;10.77;9.27;;;;;;;1.50;100.00;101937.25;5071259;28;20528;-65
2021/01/03 04:32:53;;;;;;;12.15;9.73;;;;;;;1.56;100.00;101940.28;5071347;28;20037;-65
2021/01/03 04:35:20;;;;;;;12.10;10.07;;;;;;;1.61;100.00;101932.63;5071222;28;20097;-65
2021/01/03 04:37:46;;;;;;;11.10;9.27;;;;;;;1.64;100.00;101938.53;5071283;28;20048;-66
2021/01/03 04:40:25;;;;;;;12.25;10.57;;;;;;;1.66;100.00;101930.28;5071115;28;20414;-65
2021/01/03 04:42:56;;;;;;;11.85;9.52;;;;;;;1.67;100.00;101931.97;5071457;28;20079;-65
2021/01/03 04:45:31;;;;;;;11.30;9.50;;;;;;;1.66;100.00;101920.38;5071103;28;20035;-65
2021/01/03 04:48:03;;;;;;;11.52;9.95;;;;;;;1.67;100.00;101921.22;5071090;28;20085;-65
2021/01/03 04:50:50;;;;;;;12.27;10.30;;;;;;;1.70;100.00;101926.28;5071040;28;20047;-65
2021/01/03 04:53:34;;;;;;;11.40;9.95;;;;;;;1.76;100.00;101920.28;5071071;28;20402;-66
2021/01/03 04:56:10;;;;;;;10.75;9.65;;;;;;;1.80;100.00;101921.66;5071001;28;20415;-65
2021/01/03 04:58:51;;;;;;;11.98;9.60;;;;;;;1.84;100.00;101923.00;5070888;28;20123;-65
2021/01/03 05:01:39;;;;;;;11.95;9.45;;;;;;;1.89;100.00;101923.38;5070989;28;20028;-65
2021/01/03 05:04:23;;;;;;;11.50;9.77;;;;;;;1.94;100.00;101929.16;5071216;28;20085;-66
2021/01/03 05:06:51;;;;;;;12.32;10.13;;;;;;;2.00;100.00;101936.59;5070853;28;20033;-65
2021/01/03 05:09:17;;;;;;;13.65;11.13;;;;;;;2.04;100.00;101935.25;5070765;28;20498;-65
2021/01/03 05:12:26;;;;;;;14.95;11.02;;;;;;;2.09;100.00;101930.25;5070771;28;20411;-65
2021/01/03 05:15:01;;;;;;;12.10;10.30;;;;;;;2.15;100.00;101930.59;5058463;28;20082;-65
2021/01/03 05:17:26;;;;;;;13.95;10.25;;;;;;;2.17;100.00;101928.59;5070842;28;20494;-65
2021/01/03 05:19:52;;;;;;;14.05;10.52;;;;;;;2.18;100.00;101928.44;5070667;28;20033;-65
2021/01/03 05:22:33;;;;;;;12.40;10.20;;;;;;;2.21;100.00;101930.78;5070686;28;20040;-65
2021/01/03 05:25:01;;;;;;;11.73;9.82;;;;;;;2.24;100.00;101935.84;5070595;28;20483;-66
2021/01/03 05:27:28;;;;;;;12.80;9.93;;;;;;;2.28;100.00;101933.72;5070695;28;20127;-65
2021/01/03 05:30:20;;;;;;;15.77;11.38;;;;;;;2.33;100.00;101920.59;5052732;28;20040;-65
2021/01/03 05:32:49;;;;;;;13.68;11.23;;;;;;;2.37;100.00;101930.88;5054574;28;20051;-65
2021/01/03 05:35:20;;;;;;;13.10;10.48;;;;;;;2.41;100.00;101936.78;5074679;28;20045;-65
2021/01/03 05:37:47;;;;;;;11.40;9.93;;;;;;;2.44;100.00;101935.63;5074646;28;20033;-65
2021/01/03 05:40:41;;;;;;;11.68;10.45;;;;;;;2.43;100.00;101929.41;5074413;28;20479;-65
2021/01/03 05:43:06;;;;;;;11.95;10.43;;;;;;;2.42;100.00;101923.13;5074355;28;20040;-65
2021/01/03 05:45:33;;;;;;;11.25;9.80;;;;;;;2.44;100.00;101925.69;5074612;28;20032;-66
2021/01/03 05:48:02;;;;;;;11.45;9.90;;;;;;;2.47;100.00;101924.53;5074448;28;20048;-65
2021/01/03 05:50:36;;;;;;;9.95;8.95;;;;;;;2.49;100.00;101931.44;5074350;28;20040;-65
2021/01/03 05:53:22;;;;;;;12.13;10.50;;;;;;;2.53;100.00;101929.25;5074392;28;20207;-66
2021/01/03 05:56:01;;;;;;;12.95;10.60;;;;;;;2.56;100.00;101923.53;5074406;28;20110;-65
2021/01/03 05:58:34;;;;;;;11.80;10.45;;;;;;;2.57;100.00;101931.47;5074107;28;20044;-65
2021/01/03 06:01:21;;;;;;;12.57;9.90;;;;;;;2.60;100.00;101931.16;5074450;28;20123;-66
2021/01/03 06:04:10;;;;;;;11.57;10.05;;;;;;;2.59;100.00;101929.44;5074200;28;20064;-65
2021/01/03 06:06:42;;;;;;;11.68;10.00;;;;;;;2.60;100.00;101936.56;5056179;28;20549;-64
2021/01/03 06:09:09;;;;;;;13.32;10.02;;;;;;;2.60;100.00;101925.75;5073925;28;20028;-66
2021/01/03 06:11:35;;;;;;;11.93;10.38;;;;;;;2.63;100.00;101929.97;5074074;28;20033;-66
2021/01/03 06:14:01;;;;;;;12.98;11.23;;;;;;;2.65;100.00;101927.97;5073911;28;20055;-65
2021/01/03 06:16:36;;;;;;;15.07;11.52;;;;;;;2.65;100.00;101922.56;5073890;28;20071;-65
2021/01/03 06:19:06;;;;;;;13.05;10.40;;;;;;;2.65;100.00;101934.19;5073904;28;20032;-65
2021/01/03 06:21:41;;;;;;;11.90;10.55;;;;;;;2.67;100.00;101924.09;5073802;28;20060;-66
2021/01/03 06:24:13;;;;;;;9.93;8.88;;;;;;;2.67;100.00;101921.38;5073546;28;20082;-66
2021/01/03 06:27:04;;;;;;;13.13;9.63;;;;;;;2.69;100.00;101922.06;5073742;28;20437;-65
2021/01/03 06:29:41;;;;;;;12.68;9.85;;;;;;;2.72;100.00;101929.81;5061618;28;20052;-65
2021/01/03 06:32:44;;;;;;;10.07;9.02;;;;;;;2.73;100.00;101928.81;5073616;28;20101;-63
2021/01/03 06:35:34;;;;;;;10.18;8.73;;;;;;;2.73;100.00;101934.22;5055770;28;20047;-63
2021/01/03 06:38:13;;;;;;;9.93;8.65;;;;;;;2.75;100.00;101933.19;5073538;28;20039;-62
2021/01/03 06:40:44;;;;;;;9.50;8.45;;;;;;;2.76;100.00;101934.88;5073423;28;20056;-63
2021/01/03 06:43:40;;;;;;;9.18;8.23;;;;;;;2.78;100.00;101936.44;5072871;28;20036;-63
2021/01/03 06:46:30;;;;;;;9.88;8.75;;;;;;;2.79;100.00;101942.69;5073376;28;20043;-63
2021/01/03 06:49:27;;;;;;;8.93;7.78;;;;;;;2.82;100.00;101950.44;5073231;28;20032;-63
2021/01/03 06:52:12;;;;;;;11.05;8.18;;;;;;;2.85;100.00;101950.09;5073447;28;20044;-63
2021/01/03 06:55:15;;;;;;;9.93;7.75;;;;;;;2.86;100.00;101941.00;5073140;28;20090;-63
2021/01/03 06:58:02;;;;;;;9.80;8.32;;;;;;;2.90;100.00;101945.06;5073147;28;20024;-63
2021/01/03 07:00:46;;;;;;;9.23;7.32;;;;;;;2.90;100.00;101947.75;5073230;28;20032;-63
2021/01/03 07:03:33;;;;;;;9.50;7.82;;;;;;;2.91;100.00;101949.44;5054912;28;20028;-62
2021/01/03 07:06:06;;;;;;;8.73;7.75;;;;;;;2.93;100.00;101945.56;5073318;28;20071;-63
2021/01/03 07:08:46;;;;;;;8.30;7.40;;;;;;;2.94;100.00;101949.94;5073071;28;20036;-62
2021/01/03 07:11:36;;;;;;;9.75;7.05;;;;;;;2.95;100.00;101948.97;5072933;28;20047;-62
2021/01/03 07:14:03;;;;;;;9.02;7.55;;;;;;;2.97;100.00;101954.19;5072650;28;20032;-63
2021/01/03 07:16:47;;;;;;;8.05;7.25;;;;;;;2.97;100.00;101954.19;5072875;28;20072;-63
2021/01/03 07:19:24;;;;;;;8.30;7.50;;;;;;;2.98;100.00;101950.47;5072624;28;20467;-63
2021/01/03 07:21:50;;;;;;;8.50;7.05;;;;;;;2.99;100.00;101952.16;5072571;28;20376;-63
2021/01/03 07:24:35;;;;;;;7.75;6.95;;;;;;;2.99;100.00;101953.00;5072600;28;20429;-63
2021/01/03 07:27:25;;;;;;;7.32;6.63;;;;;;;3.00;100.00;101943.06;5072635;28;20039;-63
2021/01/03 07:29:57;;;;;;;6.53;5.90;;;;;;;3.01;100.00;101956.38;5072484;28;20107;-62
2021/01/03 07:32:38;;;;;;;7.35;6.57;;;;;;;3.03;100.00;101945.44;5072539;28;20557;-63
2021/01/03 07:35:20;;;;;;;7.88;6.80;;;;;;;3.05;100.00;101939.84;5072500;28;20062;-62
2021/01/03 07:37:46;;;;;;;6.68;5.57;;;;;;;3.07;100.00;101948.63;5072415;28;20036;-62
2021/01/03 07:40:21;;;;;;;7.63;6.57;;;;;;;3.10;100.00;101938.34;5072096;28;20044;-63
2021/01/03 07:42:46;;;;;;;;;;;;;;;3.11;100.00;101940.03;5072669;28;20037;-63
2021/01/03 07:45:12;;;;;;;6.07;5.55;;;;;;;3.14;100.00;101945.13;5072135;28;19927;-63
2021/01/03 07:47:48;;;;;;;7.20;5.60;;;;;;;3.15;100.00;101937.88;5072179;28;20090;-62
2021/01/03 07:50:16;;;;;;;6.30;5.70;;;;;;;3.17;100.00;101952.88;5072202;28;20047;-62
2021/01/03 07:52:56;;;;;;;6.63;5.55;;;;;;;3.17;100.00;101955.56;5071975;28;20040;-62
2021/01/03 07:55:22;;;;;;;6.45;5.18;;;;;;;3.18;100.00;101954.56;5052904;28;20040;-62
2021/01/03 07:58:03;;;;;;;8.80;5.60;;;;;;;3.18;100.00;101951.88;5072114;28;20039;-62
2021/01/03 08:00:33;;;;;;;6.45;5.57;;;;;;;3.21;100.00;101953.38;5053789;28;20500;-63
2021/01/03 08:03:07;;;;;;;6.88;6.03;;;;;;;3.20;100.00;101960.63;5071727;28;20055;-62
2021/01/03 08:05:34;;;;;;;6.35;5.68;;;;;;;3.20;100.00;101949.84;5071936;28;20028;-63
2021/01/03 08:08:12;;;;;;;6.20;5.60;;;;;;;3.21;100.00;101956.94;5071509;28;20054;-63
2021/01/03 08:10:37;;;;;;;6.75;6.07;;;;;;;3.21;100.00;101951.53;5071658;28;20032;-63
2021/01/03 08:13:14;;;;;;;6.72;6.03;;;;;;;3.21;100.00;101954.22;5071630;28;20040;-62
2021/01/03 08:15:40;;;;;;;6.40;5.80;;;;;;;3.21;100.00;101962.31;5071750;28;20037;-63
2021/01/03 08:18:13;;;;;;;7.57;5.95;;;;;;;3.21;100.00;101961.47;5071491;28;20036;-63
2021/01/03 08:20:38;;;;;;;7.72;6.60;;;;;;;3.23;100.00;101970.25;5071522;28;20081;-63
2021/01/03 08:23:17;;;;;;;7.25;6.40;;;;;;;3.23;100.00;101971.09;5071528;28;20504;-63
2021/01/03 08:25:43;;;;;;;6.68;6.07;;;;;;;3.22;100.00;101974.81;5071389;28;20032;-62
2021/01/03 08:28:19;;;;;;;6.95;6.25;;;;;;;3.24;100.00;101972.78;5071494;28;20379;-62
2021/01/03 08:30:46;;;;;;;6.45;5.75;;;;;;;3.25;100.00;101977.16;5071495;28;20081;-62
2021/01/03 08:33:32;;;;;;;6.20;5.60;;;;;;;3.27;100.00;101972.44;5071291;28;20495;-62
2021/01/03 08:36:13;;;;;;;7.72;6.15;;;;;;;3.28;100.00;101984.94;5071559;28;20086;-63
2021/01/03 08:38:39;;;;;;;6.28;5.68;;;;;;;3.31;100.00;101989.19;5071401;28;20039;-63
2021/01/03 08:41:09;;;;;;;6.72;6.03;;;;;;;3.31;100.00;101984.63;5053053;28;20052;-66
2021/01/03 08:43:35;;;;;;;7.18;6.10;;;;;;;3.32;100.00;101975.50;5071107;28;20078;-64
2021/01/03 08:46:03;;;;;;;5.88;5.38;;;;;;;3.32;100.00;101986.31;5071162;28;20418;-65
2021/01/03 08:48:30;;;;;;;5.60;5.03;;;;;;;3.33;100.00;101982.59;5071059;28;20037;-65
2021/01/03 08:51:08;;;;;;;5.03;4.55;;;;;;;3.32;100.00;101980.91;5071474;28;20508;-65
2021/01/03 08:53:35;;;;;;;5.88;4.72;;;;;;;3.35;100.00;101989.69;5071030;28;20039;-65
2021/01/03 08:56:14;;;;;;;5.50;4.97;;;;;;;3.40;100.00;101992.72;5071141;28;20078;-65
2021/01/03 08:58:40;;;;;;;5.95;5.45;;;;;;;3.44;100.00;101989.50;5070877;28;20039;-64
2021/01/03 09:01:31;;;;;;;5.80;5.07;;;;;;;3.50;100.00;101994.28;5052938;28;20376;-66
2021/01/03 09:04:11;;;;;;;5.55;5.13;;;;;;;3.54;100.00;101994.78;5070871;28;20028;-66
2021/01/03 09:06:37;;;;;;;5.90;5.38;;;;;;;3.57;100.00;101995.28;5070701;28;20122;-65
2021/01/03 09:09:15;;;;;;;6.05;5.45;;;;;;;3.60;100.00;101994.09;5071038;28;20036;-65
2021/01/03 09:12:07;;;;;;;6.78;5.97;;;;;;;3.61;100.00;101990.38;5070952;28;20032;-65
2021/01/03 09:14:44;;;;;;;6.53;5.82;;;;;;;3.61;100.00;102006.59;5066068;28;20564;-67
2021/01/03 09:17:16;;;;;;;6.57;5.65;;;;;;;3.61;100.00;102003.88;5070886;28;20072;-65
2021/01/03 09:19:56;;;;;;;6.50;6.00;;;;;;;3.62;100.00;102000.16;5070793;28;20029;-66
2021/01/03 09:22:35;;;;;;;6.68;6.00;;;;;;;3.61;100.00;101996.63;5070770;28;20032;-65
2021/01/03 09:25:13;;;;;;;7.50;6.80;;;;;;;3.64;100.00;102006.25;5070699;28;20041;-65
2021/01/03 09:27:40;;;;;;;7.95;7.07;;;;;;;3.66;100.00;102004.25;5070729;28;20111;-65
2021/01/03 09:30:18;;;;;;;8.00;7.20;;;;;;;3.69;100.00;102003.91;5070668;28;20432;-65
2021/01/03 09:32:48;;;;;;;7.90;6.57;;;;;;;3.72;100.00;102003.56;5070684;28;20040;-65
2021/01/03 09:35:38;;;;;;;6.90;6.20;;;;;;;3.75;100.00;102003.22;5070591;28;20447;-65
2021/01/03 09:38:30;;;;;;;7.15;6.45;;;;;;;3.78;100.00;102002.88;5070704;28;20443;-65
2021/01/03 09:41:37;;;;;;;7.05;6.35;;;;;;;3.81;100.00;101996.28;5070480;28;20045;-66
2021/01/03 09:44:24;;;;;;;6.43;5.82;;;;;;;3.84;100.00;101995.97;5070350;28;20036;-65
2021/01/03 09:46:59;;;;;;;7.88;6.10;;;;;;;3.85;100.00;102009.31;5070561;28;20040;-66
2021/01/03 09:49:42;;;;;;;5.80;5.20;;;;;;;3.87;100.00;102004.56;5070518;28;20056;-66
2021/01/03 09:52:41;;;;;;;6.25;5.70;;;;;;;3.89;100.00;102005.25;5070393;28;20047;-65
2021/01/03 09:55:12;;;;;;;6.78;6.07;;;;;;;3.89;100.00;102005.25;5070524;28;20078;-65
2021/01/03 09:57:47;;;;;;;7.03;6.30;;;;;;;3.92;100.00;102002.19;5070576;28;20395;-66
2021/01/03 10:00:42;;;;;;;6.50;5.85;;;;;;;3.98;100.00;102002.53;5070345;28;20390;-65
2021/01/03 10:03:16;;;;;;;;;;;;;;;4.01;100.00;102002.19;5071042;28;20390;-65
2021/01/03 10:05:42;;;;;;;6.30;5.68;;;;;;;4.05;100.00;101998.13;5070315;28;19916;-66
2021/01/03 10:08:14;;;;;;;5.88;5.28;;;;;;;4.10;100.00;101993.91;5052217;28;20506;-65
2021/01/03 10:10:54;;;;;;;4.90;4.50;;;;;;;4.13;100.00;101998.09;5070325;28;20584;-64
2021/01/03 10:13:21;;;;;;;4.72;4.28;;;;;;;4.17;100.00;101996.78;5070256;28;20116;-65
2021/01/03 10:15:49;;;;;;;4.18;3.85;;;;;;;4.21;100.00;101998.13;5070209;28;20029;-65
2021/01/03 10:18:27;;;;;;;4.60;4.20;;;;;;;4.24;100.00;102003.16;5072083;28;20386;-66
2021/01/03 10:20:52;;;;;;;3.85;3.55;;;;;;;4.27;100.00;101997.41;5073961;28;20060;-65
2021/01/03 10:23:33;;;;;;;3.45;3.22;;;;;;;4.31;100.00;102009.56;5073623;28;20058;-65
2021/01/03 10:25:59;;;;;;;3.75;3.45;;;;;;;4.34;100.00;102009.25;5073616;28;20252;-65
2021/01/03 10:28:25;;;;;;;4.57;3.38;;;;;;;4.37;100.00;102011.59;5073675;28;20396;-65
2021/01/03 10:30:50;;;;;;;5.38;3.97;;;;;;;4.39;100.00;102012.25;5073685;28;20036;-65
2021/01/03 10:33:16;;;;;;;3.90;3.50;;;;;;;4.44;100.00;102006.31;5073538;28;20040;-65
2021/01/03 10:35:42;;;;;;;4.53;3.33;;;;;;;4.45;100.00;102006.16;5074124;28;20031;-65
2021/01/03 10:38:08;;;;;;;4.13;3.65;;;;;;;4.48;100.00;102011.22;5073985;28;20044;-64
2021/01/03 10:40:35;;;;;;;4.15;3.85;;;;;;;4.49;100.00;102002.06;5073240;28;20444;-65
2021/01/03 10:43:01;;;;;;;5.07;4.57;;;;;;;4.53;100.00;102011.56;5073405;28;20032;-65
2021/01/03 10:45:27;;;;;;;5.30;4.90;;;;;;;4.56;100.00;102007.66;5073411;28;20364;-65
2021/01/03 10:47:53;;;;;;;6.07;5.20;;;;;;;4.61;100.00;102004.41;5073310;28;20059;-65
2021/01/03 10:50:21;;;;;;;5.28;4.57;;;;;;;4.65;100.00;101997.63;5073297;28;20028;-65
2021/01/03 10:52:47;;;;;;;5.50;5.00;;;;;;;4.68;100.00;101978.34;5073302;28;20033;-66
2021/01/03 10:55:13;;;;;;;5.15;4.65;;;;;;;4.71;100.00;101995.09;5073245;28;20032;-65
2021/01/03 10:57:39;;;;;;;5.75;5.20;;;;;;;4.73;100.00;101997.63;5073186;28;20045;-65
2021/01/03 11:00:10;;;;;;;7.68;5.65;;;;;;;4.76;100.00;102002.66;5073153;28;20112;-65
2021/01/03 11:02:36;;;;;;;6.97;5.10;;;;;;;4.75;100.00;102001.00;5073131;28;20041;-65
2021/01/03 11:05:03;;;;;;;6.78;5.90;;;;;;;4.76;100.00;102002.66;5072931;28;20037;-66
2021/01/03 11:07:28;;;;;;;6.07;5.47;;;;;;;4.78;100.00;101998.75;5073047;28;20060;-66
2021/01/03 11:09:54;;;;;;;7.00;6.32;;;;;;;4.81;100.00;102002.97;5073053;28;20496;-66
2021/01/03 11:12:20;;;;;;;7.13;6.13;;;;;;;4.82;100.00;101996.53;5072987;28;20456;-65
2021/01/03 11:14:46;;;;;;;6.72;6.10;;;;;;;4.86;100.00;101997.91;5072856;28;20119;-66
2021/01/03 11:17:14;;;;;;;7.43;6.72;;;;;;;4.90;100.00;102004.66;5072921;28;20043;-66
2021/01/03 11:19:40;;;;;;;5.88;5.38;;;;;;;4.93;100.00;101995.31;5072635;28;20121;-65
2021/01/03 11:22:09;;;;;;;6.97;5.70;;;;;;;4.96;100.00;101995.81;5072713;28;20178;-65
2021/01/03 11:24:37;;;;;;;6.15;4.57;;;;;;;4.99;100.00;102000.88;5072672;28;20036;-65
2021/01/03 11:27:06;;;;;;;5.45;4.07;;;;;;;5.04;100.00;102001.19;5072819;28;20032;-61
2021/01/03 11:29:32;;;;;;;3.90;3.60;;;;;;;5.09;100.00;102003.34;5072397;28;20043;-62
2021/01/03 11:32:00;;;;;;;4.18;3.10;;;;;;;5.15;100.00;102008.91;5072561;28;20036;-64
2021/01/03 11:34:30;;;;;;;3.30;2.55;;;;;;;5.19;100.00;101990.41;5054722;28;20055;-63
2021/01/03 11:37:01;;;;;;;2.90;2.58;;;;;;;5.26;100.00;101987.84;5072641;28;20032;-63
2021/01/03 11:39:29;;;;;;;2.90;2.40;;;;;;;5.29;100.00;101993.75;5072439;28;20035;-62
2021/01/03 11:41:57;;;;;;;3.10;2.35;;;;;;;5.31;100.00;101996.28;5072350;28;20052;-63
2021/01/03 11:44:23;;;;;;;3.17;2.25;;;;;;;5.36;100.00;101999.28;5072429;28;20036;-63